Terminal Aerodrome Forecast
Issued by NWS Corpus Christi, TX

Home | Current Version | Previous Version | Text Only | Print | Product List | Glossary On
Versions: 1 2 3 4 5 6 7 8 9 10 11 12
000
FTUS44 KCRP 261736
TAFCRP
TAF
KCRP 261736Z 2618/2718 14016G22KT P6SM SCT040 BKN250
     FM270130 15011KT P6SM FEW025 SCT250
     FM270900 16005KT P6SM FEW018 SCT250
     FM271430 16012KT P6SM SCT028 SCT250=

USA.gov is the U.S. government's official web portal to all federal, state and local government web resources and services.